Data for 10/31/2006

Time Sea-Level Adjusted Pressure Absolute Pressure Temperature Relative Humidity Dew Point   
(mb) (inHg) (mb) (inHg) (C) (F) (%) (C) (F)
00:05 1019 30.09 848 25.04 -13.4 7.9 83 -15.7 3.7
00:10 1019 30.09 848 25.04 -13.3 8.1 84 -15.4 4.2
00:15 1019 30.09 848 25.04 -13.1 8.5 82 -15.6 4
00:20 1019 30.09 848 25.04 -13.3 8.1 83 -15.5 4
00:25 1019 30.09 848 25.04 -13.4 7.9 83 -15.7 3.8
00:30 1019 30.09 848 25.04 -13.5 7.6 83 -15.8 3.5
00:35 1019 30.09 848 25.04 -13.5 7.7 83 -15.7 3.7
00:40 1019 30.09 848 25.04 -13.5 7.7 84 -15.7 3.8
00:45 1019 30.09 848 25.04 -13.3 8.1 83 -15.7 3.8
00:50 1019 30.09 848 25.04 -13.3 8.1 82 -15.7 3.7
00:55 1019 30.09 848 25.04 -13.5 7.7 83 -15.8 3.6
01:00 1019 30.09 848 25.04 -13.5 7.7 83 -15.7 3.7
01:05 1019 30.09 848 25.04 -13.5 7.6 84 -15.7 3.7
01:10 1019 30.09 848 25.04 -13.7 7.4 84 -15.8 3.6
01:15 1019 30.09 848 25.04 -13.7 7.3 85 -15.8 3.6
01:20 1019 30.09 848 25.04 -13.5 7.8 84 -15.7 3.8
01:25 1019 30.09 848 25.04 -13.4 7.9 81 -16 3.2
01:30 1019 30.09 848 25.04 -13.8 7.2 85 -15.8 3.5
01:35 1019 30.09 848 25.04 -13.9 6.9 84 -16.1 2.9
01:40 1019 30.09 848 25.04 -14.4 6.1 86 -16.2 2.8
01:45 1019 30.09 848 25.04 -14.3 6.3 86 -16.2 2.9
01:50 1019 30.09 848 25.04 -14.1 6.7 85 -16.1 3
01:55 1019 30.09 848 25.04 -14.1 6.6 85 -16.2 2.9
02:00 1019 30.09 848 25.04 -14.5 6 86 -16.3 2.6
02:05 1019 30.09 848 25.04 -14.6 5.8 87 -16.2 2.8
02:10 1019 30.09 848 25.04 -14.3 6.3 86 -16.2 2.9
02:15 1019 30.09 848 25.04 -14.4 6 85 -16.5 2.4
02:20 1019 30.09 848 25.04 -14.6 5.8 85 -16.5 2.3
02:25 1019 30.09 848 25.04 -14.5 6 85 -16.4 2.4
02:30 1018 30.06 848 25.04 -14.5 6 85 -16.4 2.5
02:35 1018 30.06 848 25.04 -14.3 6.3 84 -16.5 2.4
02:40 1018 30.06 848 25.04 -14.5 5.9 85 -16.5 2.3
02:45 1018 30.06 848 25.04 -14.7 5.6 86 -16.6 2.1
02:50 1018 30.06 848 25.04 -14.5 5.9 84 -16.7 2
02:55 1018 30.06 848 25.04 -14.6 5.7 85 -16.6 2
03:00 1018 30.06 848 25.04 -14.4 6 84 -16.6 2.1
03:05 1018 30.06 848 25.04 -14.5 5.8 85 -16.6 2.2
03:10 1018 30.06 848 25.04 -14.5 5.8 85 -16.6 2.2
03:15 1018 30.06 848 25.04 -14.5 5.8 85 -16.5 2.4
03:20 1018 30.06 847 25.01 -14.5 5.8 85 -16.6 2.2
03:25 1018 30.06 847 25.01 -14.6 5.8 85 -16.5 2.3
03:30 1018 30.06 847 25.01 -14.5 5.9 85 -16.5 2.3
03:35 1018 30.06 847 25.01 -14.4 6 85 -16.5 2.3
03:40 1018 30.06 847 25.01 -14.6 5.8 86 -16.4 2.5
03:45 1018 30.06 847 25.01 -14.4 6 86 -16.2 2.8
03:50 1018 30.06 847 25.01 -14.2 6.5 86 -16.1 3.1
03:55 1018 30.06 848 25.04 -14.1 6.6 86 -16 3.2
04:00 1018 30.06 848 25.04 -13.9 6.9 85 -15.9 3.3
04:05 1018 30.06 848 25.04 -13.9 6.9 82 -16.3 2.6
04:10 1018 30.06 848 25.04 -14.4 6 83 -16.8 1.8
04:15 1018 30.06 847 25.01 -14.9 5.1 88 -16.5 2.3
04:20 1018 30.06 847 25.01 -14.7 5.5 86 -16.5 2.3
04:25 1018 30.06 847 25.01 -14.7 5.5 88 -16.3 2.7
04:30 1018 30.06 847 25.01 -14.4 6 87 -16.1 3
04:35 1018 30.06 847 25.01 -14.2 6.4 86 -16.1 3.1
04:40 1018 30.06 847 25.01 -14.3 6.2 83 -16.6 2.2
04:45 1018 30.06 847 25.01 -14.5 5.9 84 -16.7 2
04:50 1018 30.06 847 25.01 -14.7 5.5 85 -16.7 1.9
04:55 1018 30.06 847 25.01 -14.7 5.6 86 -16.6 2.2
05:00 1018 30.06 847 25.01 -14.8 5.4 85 -16.8 1.8
05:05 1018 30.06 847 25.01 -15 5.1 85 -16.9 1.5
05:10 1018 30.06 847 25.01 -15.1 4.8 87 -16.8 1.7
05:15 1018 30.06 847 25.01 -14.8 5.4 87 -16.5 2.3
05:20 1018 30.06 847 25.01 -14.6 5.6 86 -16.5 2.4
05:25 1018 30.06 847 25.01 -14.7 5.6 86 -16.5 2.4
05:30 1018 30.06 847 25.01 -14.5 6 84 -16.6 2.2
05:35 1018 30.06 847 25.01 -14.2 6.5 83 -16.5 2.2
05:40 1018 30.06 847 25.01 -14.4 6.1 81 -17 1.4
05:45 1018 30.06 847 25.01 -14.6 5.7 84 -16.8 1.8
05:50 1018 30.06 847 25.01 -14.7 5.6 85 -16.6 2
05:55 1018 30.06 847 25.01 -14.6 5.7 86 -16.5 2.3
06:00 1018 30.06 847 25.01 -14.4 6.1 86 -16.3 2.7
06:05 1018 30.06 847 25.01 -14.1 6.6 84 -16.2 2.8
06:10 1018 30.06 847 25.01 -14.4 6.1 84 -16.5 2.3
06:15 1018 30.06 847 25.01 -15 5 85 -17 1.4
06:20 1018 30.06 847 25.01 -15.6 4 87 -17.2 1
06:25 1018 30.06 847 25.01 -15.5 4 87 -17.2 1
06:30 1018 30.06 847 25.01 -15.4 4.3 86 -17.2 1.1
06:35 1018 30.06 847 25.01 -15.3 4.4 86 -17.2 1
06:40 1018 30.06 847 25.01 -15.3 4.5 85 -17.2 1
06:45 1018 30.06 847 25.01 -15.2 4.7 85 -17.1 1.2
06:50 1018 30.06 847 25.01 -15.1 4.9 85 -17.1 1.2
06:55 1018 30.06 847 25.01 -15.3 4.5 84 -17.5 0.6
07:00 1018 30.06 847 25.01 -15.5 4.1 86 -17.3 0.9
07:05 1018 30.06 847 25.01 -15.3 4.5 85 -17.3 0.8
07:10 1018 30.06 847 25.01 -15.4 4.3 85 -17.3 0.8
07:15 1018 30.06 847 25.01 -15.3 4.4 85 -17.3 0.9
07:20 1018 30.06 847 25.01 -15.1 4.8 85 -17.1 1.3
07:25 1018 30.06 847 25.01 -14.9 5.3 85 -16.9 1.6
07:30 1018 30.06 847 25.01 -14.4 6.1 82 -16.8 1.8
07:35 1018 30.06 847 25.01 -14.2 6.4 81 -16.8 1.8
07:40 1018 30.06 847 25.01 -14.2 6.4 81 -16.8 1.7
07:45 1018 30.06 847 25.01 -14.3 6.3 82 -16.8 1.8
07:50 1018 30.06 847 25.01 -14 6.8 81 -16.6 2.2
07:55 1018 30.06 847 25.01 -13.6 7.5 79 -16.5 2.4
08:00 1018 30.06 848 25.04 -13.2 8.2 79 -16.1 3
08:05 1018 30.06 848 25.04 -12.7 9.1 77 -15.9 3.4
08:10 1018 30.06 848 25.04 -12.1 10.2 74 -15.8 3.5
08:15 1018 30.06 848 25.04 -12 10.5 74 -15.7 3.7
08:20 1018 30.06 848 25.04 -11.9 10.6 74 -15.7 3.7
08:25 1018 30.06 848 25.04 -11.6 11.2 75 -15.2 4.6
08:30 1018 30.06 848 25.04 -11.1 11.9 72 -15.2 4.6
08:35 1019 30.09 848 25.04 -10.8 12.5 71 -15.1 4.9
08:40 1019 30.09 848 25.04 -10.6 13 70 -15.1 4.9
08:45 1019 30.09 848 25.04 -9.9 14.1 67 -14.9 5.1
08:50 1019 30.09 848 25.04 -9.2 15.4 65 -14.7 5.6
08:55 1019 30.09 848 25.04 -9.2 15.4 65 -14.6 5.7
09:00 1019 30.09 848 25.04 -8.7 16.4 63 -14.6 5.8
09:05 1019 30.09 848 25.04 -8.9 16.1 64 -14.4 6
09:10 1019 30.09 848 25.04 -9.4 15.1 66 -14.6 5.7
09:15 1019 30.09 848 25.04 -8.8 16.3 62 -14.7 5.5
09:20 1019 30.09 848 25.04 -8.1 17.4 62 -14.1 6.5
09:25 1019 30.09 848 25.04 -7.4 18.7 60 -13.8 7.2
09:30 1019 30.09 848 25.04 -7.5 18.4 61 -13.8 7.2
09:35 1019 30.09 848 25.04 -8.4 16.9 64 -14.1 6.6
09:40 1019 30.09 848 25.04 -8.3 17 63 -14.2 6.4
09:45 1019 30.09 848 25.04 -8.7 16.3 64 -14.4 6
09:50 1019 30.09 848 25.04 -8.1 17.5 62 -14 6.7
09:55 1019 30.09 848 25.04 -7.3 19 59 -13.9 7
10:00 1019 30.09 848 25.04 -6.2 20.8 56 -13.6 7.4
10:05 1019 30.09 848 25.04 -6 21.3 56 -13.3 8.1
10:10 1019 30.09 848 25.04 -6.2 20.9 59 -12.9 8.7
10:15 1019 30.09 848 25.04 -7.6 18.4 62 -13.6 7.6
10:20 1019 30.09 848 25.04 -6.8 19.7 60 -13.3 8.1
10:25 1019 30.09 848 25.04 -6.2 20.9 56 -13.6 7.6
10:30 1019 30.09 848 25.04 -6.1 21 58 -13.1 8.4
10:35 1019 30.09 848 25.04 -6.8 19.7 61 -13.2 8.2
10:40 1019 30.09 848 25.04 -7 19.4 60 -13.6 7.5
10:45 1019 30.09 848 25.04 -7.3 18.9 61 -13.6 7.5
10:50 1019 30.09 848 25.04 -7 19.5 58 -13.8 7.1
10:55 1019 30.09 848 25.04 -6.5 20.2 56 -13.9 7
11:00 1019 30.09 848 25.04 -6.7 19.9 56 -14.2 6.4
11:05 1019 30.09 848 25.04 -6.8 19.8 58 -13.8 7.2
11:10 1019 30.09 848 25.04 -6.5 20.2 57 -13.7 7.3
11:15 1019 30.09 848 25.04 -6 21.2 56 -13.4 8
11:20 1019 30.09 848 25.04 -5.5 22.1 56 -13 8.5
11:25 1019 30.09 848 25.04 -5.5 22.2 54 -13.5 7.8
11:30 1019 30.09 848 25.04 -5.3 22.4 54 -13.3 8
11:35 1019 30.09 848 25.04 -5.2 22.7 54 -13.1 8.3
11:40 1019 30.09 848 25.04 -5.3 22.5 54 -13.1 8.4
11:45 1019 30.09 848 25.04 -5 23 52 -13.5 7.7
11:50 1019 30.09 848 25.04 -5 23 52 -13.3 8
11:55 1019 30.09 848 25.04 -5 23 52 -13.5 7.7
12:00 1019 30.09 848 25.04 -4.7 23.5 51 -13.4 7.9
12:05 1019 30.09 848 25.04 -4.5 23.9 50 -13.4 7.8
12:10 1019 30.09 848 25.04 -4.7 23.6 54 -12.6 9.2
12:15 1019 30.09 848 25.04 -4.9 23.3 53 -13.1 8.5
12:20 1019 30.09 848 25.04 -4.5 23.9 52 -12.9 8.8
12:25 1019 30.09 848 25.04 -4.2 24.4 52 -12.6 9.2
12:30 1019 30.09 848 25.04 -4.4 24.1 51 -13.1 8.4
12:35 1019 30.09 848 25.04 -4.4 24 52 -12.9 8.7
12:40 1019 30.09 848 25.04 -4.2 24.5 51 -12.9 8.8
12:45 1019 30.09 848 25.04 -4.4 24.1 52 -12.9 8.7
12:50 1019 30.09 848 25.04 -4.6 23.8 52 -12.9 8.8
12:55 1019 30.09 848 25.04 -4.5 23.9 52 -12.9 8.9
13:00 1019 30.09 848 25.04 -4.1 24.7 50 -13 8.6
13:05 1019 30.09 848 25.04 -4 24.8 50 -12.9 8.8
13:10 1019 30.09 848 25.04 -4.7 23.5 53 -12.8 8.9
13:15 1019 30.09 848 25.04 -4.2 24.4 50 -13.2 8.3
13:20 1018 30.06 848 25.04 -4.3 24.3 52 -12.6 9.3
13:25 1018 30.06 848 25.04 -3.9 25 51 -12.6 9.3
13:30 1018 30.06 848 25.04 -4.3 24.3 51 -13.1 8.5
13:35 1018 30.06 848 25.04 -4.8 23.3 54 -12.8 8.9
13:40 1018 30.06 848 25.04 -4.4 24.2 51 -13.1 8.5
13:45 1018 30.06 848 25.04 -4 24.8 50 -13 8.5
13:50 1018 30.06 848 25.04 -4 24.8 51 -12.8 9
13:55 1018 30.06 848 25.04 -3.8 25.2 51 -12.6 9.4
14:00 1018 30.06 848 25.04 -3.5 25.6 47 -13.2 8.3
14:05 1018 30.06 848 25.04 -3.3 26 48 -12.8 9
14:10 1018 30.06 848 25.04 -3.4 25.9 48 -12.8 8.9
14:15 1018 30.06 848 25.04 -3.2 26.3 48 -12.8 8.9
14:20 1019 30.09 848 25.04 -2.9 26.8 46 -12.9 8.8
14:25 1019 30.09 848 25.04 -2.8 27 47 -12.7 9.2
14:30 1019 30.09 848 25.04 -3.1 26.4 47 -13 8.7
14:35 1019 30.09 848 25.04 -3.5 25.7 49 -12.7 9.2
14:40 1019 30.09 848 25.04 -3.5 25.7 49 -12.8 9
14:45 1019 30.09 848 25.04 -3.9 24.9 52 -12.3 9.8
14:50 1019 30.09 848 25.04 -4.7 23.6 53 -12.9 8.7
14:55 1019 30.09 848 25.04 -4.4 24.1 52 -12.9 8.8
15:00 1019 30.09 848 25.04 -4.5 24 52 -13 8.6
15:05 1019 30.09 848 25.04 -3.8 25.2 48 -13.3 8
15:10 1019 30.09 848 25.04 -3.3 26 47 -13 8.6
15:15 1019 30.09 848 25.04 -3.5 25.8 48 -13 8.6
15:20 1019 30.09 848 25.04 -3.2 26.2 47 -13.1 8.4
15:25 1019 30.09 848 25.04 -3 26.5 47 -12.8 9
15:30 1019 30.09 848 25.04 -2.6 27.3 44 -13.2 8.2
15:35 1019 30.09 848 25.04 -2.5 27.6 44 -13 8.6
15:40 1019 30.09 848 25.04 -2.3 27.8 43 -13.4 7.8
15:45 1019 30.09 848 25.04 -2.5 27.5 43 -13.5 7.8
15:50 1019 30.09 848 25.04 -2.5 27.5 43 -13.5 7.6
15:55 1019 30.09 848 25.04 -2.2 28.1 41 -13.7 7.3
16:00 1019 30.09 848 25.04 -1.9 28.6 40 -13.8 7.2
16:05 1019 30.09 848 25.04 -2.1 28.1 42 -13.6 7.6
16:10 1019 30.09 848 25.04 -2.2 28.1 42 -13.5 7.6
16:15 1019 30.09 848 25.04 -2.4 27.7 41 -14 6.8
16:20 1019 30.09 849 25.07 -2.5 27.5 42 -13.7 7.4
16:25 1019 30.09 849 25.07 -2.7 27.1 43 -13.5 7.6
16:30 1019 30.09 849 25.07 -3 26.6 45 -13.3 8
16:35 1019 30.09 849 25.07 -3.5 25.7 50 -12.4 9.8
16:40 1019 30.09 848 25.04 -4.2 24.4 51 -12.9 8.9
16:45 1019 30.09 849 25.07 -4.2 24.5 49 -13.2 8.2
16:50 1019 30.09 849 25.07 -4.8 23.4 52 -13.2 8.2
16:55 1019 30.09 849 25.07 -4.4 24.1 51 -13.1 8.4
17:00 1019 30.09 849 25.07 -4.2 24.4 50 -13.2 8.3
17:05 1019 30.09 849 25.07 -4.3 24.3 50 -13.2 8.3
17:10 1020 30.12 849 25.07 -4.7 23.6 51 -13.3 8.1
17:15 1020 30.12 849 25.07 -4.9 23.1 51 -13.7 7.3
17:20 1020 30.12 849 25.07 -5.2 22.7 53 -13.4 7.8
17:25 1020 30.12 849 25.07 -5.6 21.9 55 -13.3 8
17:30 1020 30.12 849 25.07 -5.9 21.5 57 -13 8.6
17:35 1020 30.12 849 25.07 -5.8 21.6 58 -12.7 9.1
17:40 1020 30.12 849 25.07 -6.2 20.8 62 -12.3 9.9
17:45 1020 30.12 849 25.07 -6.5 20.4 64 -12.3 9.9
17:50 1020 30.12 849 25.07 -6.6 20.1 64 -12.3 9.9
17:55 1020 30.12 849 25.07 -6.9 19.5 66 -12.3 9.9
18:00 1020 30.12 849 25.07 -7.2 19.1 67 -12.3 9.8
18:05 1020 30.12 849 25.07 -7.3 18.9 65 -12.9 8.9
18:10 1020 30.12 849 25.07 -7.6 18.4 68 -12.5 9.6
18:15 1020 30.12 849 25.07 -7.9 17.8 74 -11.8 10.7
18:20 1020 30.12 849 25.07 -8.5 16.8 74 -12.4 9.8
18:25 1020 30.12 849 25.07 -9 15.8 77 -12.4 9.7
18:30 1020 30.12 849 25.07 -9.2 15.5 78 -12.3 9.8
18:35 1020 30.12 850 25.1 -9.1 15.6 78 -12.3 9.9
18:40 1020 30.12 850 25.1 -9.1 15.7 75 -12.7 9.1
18:45 1020 30.12 850 25.1 -9 15.8 74 -12.9 8.9
18:50 1020 30.12 850 25.1 -9 15.8 73 -12.9 8.7
18:55 1020 30.12 850 25.1 -8.9 16 73 -13 8.6
19:00 1020 30.12 850 25.1 -8.8 16.2 72 -13 8.6
19:05 1021 30.15 850 25.1 -8.9 16 73 -12.9 8.8
19:10 1021 30.15 850 25.1 -8.8 16.2 72 -12.9 8.8
19:15 1021 30.15 850 25.1 -8.8 16.2 73 -12.9 8.9
19:20 1021 30.15 850 25.1 -8.8 16.2 72 -12.9 8.7
19:25 1021 30.15 850 25.1 -9 15.8 75 -12.7 9.2
19:30 1021 30.15 850 25.1 -9.7 14.5 77 -13 8.6
19:35 1021 30.15 850 25.1 -10.2 13.7 78 -13.3 8.1
19:40 1021 30.15 850 25.1 -10.5 13.2 79 -13.4 7.9
19:45 1021 30.15 850 25.1 -10.2 13.7 77 -13.5 7.7
19:50 1021 30.15 850 25.1 -9.9 14.2 77 -13.2 8.3
19:55 1021 30.15 850 25.1 -9.9 14.3 77 -13.2 8.3
20:00 1021 30.15 850 25.1 -9.8 14.4 78 -12.9 8.7
20:05 1021 30.15 850 25.1 -9.4 15 76 -12.9 8.8
20:10 1021 30.15 850 25.1 -9.2 15.4 75 -12.9 8.8
20:15 1021 30.15 850 25.1 -9.3 15.3 75 -12.9 8.8
20:20 1021 30.15 850 25.1 -9.6 14.7 76 -13.1 8.5
20:25 1021 30.15 851 25.13 -10.2 13.7 79 -13.2 8.2
20:30 1021 30.15 851 25.13 -10.4 13.2 78 -13.6 7.5
20:35 1021 30.15 851 25.13 -10.3 13.5 77 -13.5 7.6
20:40 1021 30.15 851 25.13 -10.6 13 79 -13.5 7.7
20:45 1022 30.18 851 25.13 -10.7 12.8 81 -13.4 8
20:50 1022 30.18 851 25.13 -10.2 13.7 78 -13.4 7.9
20:55 1022 30.18 851 25.13 -10.3 13.6 78 -13.3 8
21:00 1022 30.18 851 25.13 -10.7 12.8 80 -13.5 7.7
21:05 1022 30.18 851 25.13 -10.7 12.8 79 -13.6 7.5
21:10 1022 30.18 851 25.13 -10.7 12.7 78 -13.8 7.2
21:15 1022 30.18 851 25.13 -10.8 12.7 79 -13.7 7.4
21:20 1022 30.18 851 25.13 -10.9 12.3 78 -14 6.8
21:25 1022 30.18 851 25.13 -10.9 12.3 79 -14 6.9
21:30 1022 30.18 851 25.13 -10.8 12.5 78 -14 6.9
21:35 1022 30.18 851 25.13 -10.7 12.8 78 -13.9 7
21:40 1022 30.18 851 25.13 -10.6 12.9 77 -13.9 7
21:45 1022 30.18 851 25.13 -11.2 11.9 79 -14.1 6.6
21:50 1022 30.18 851 25.13 -11 12.2 78 -14.1 6.7
21:55 1022 30.18 852 25.16 -10.8 12.6 78 -14 6.9
22:00 1022 30.18 852 25.16 -11 12.1 78 -14.1 6.6
22:05 1022 30.18 852 25.16 -11.2 11.8 81 -13.9 7
22:10 1022 30.18 852 25.16 -10.8 12.5 78 -13.9 6.9
22:15 1022 30.18 852 25.16 -10.8 12.5 78 -13.9 6.9
22:20 1023 30.21 852 25.16 -11 12.3 77 -14.2 6.4
22:25 1023 30.21 852 25.16 -11.4 11.6 80 -14.1 6.7
22:30 1023 30.21 852 25.16 -11.3 11.6 80 -14.2 6.5
22:35 1023 30.21 852 25.16 -11.5 11.3 81 -14.2 6.4
22:40 1023 30.21 852 25.16 -11.8 10.9 83 -14.1 6.5
22:45 1023 30.21 852 25.16 -11.3 11.8 80 -14.1 6.6
22:50 1023 30.21 852 25.16 -11.2 11.9 78 -14.3 6.3
22:55 1023 30.21 852 25.16 -11.5 11.4 78 -14.6 5.7
23:00 1023 30.21 852 25.16 -11.9 10.5 80 -14.6 5.6
23:05 1023 30.21 852 25.16 -11.9 10.5 80 -14.8 5.4
23:10 1023 30.21 852 25.16 -11.8 10.7 79 -14.7 5.5
23:15 1023 30.21 852 25.16 -12 10.3 80 -14.8 5.3
23:20 1023 30.21 852 25.16 -12.2 10 82 -14.8 5.4
23:25 1023 30.21 852 25.16 -12.2 10 80 -15 4.9
23:30 1023 30.21 852 25.16 -12.5 9.5 81 -15.2 4.7
23:35 1023 30.21 852 25.16 -12.5 9.5 81 -15.1 4.8
23:40 1023 30.21 852 25.16 -12.4 9.7 81 -15.1 4.9
23:45 1023 30.21 852 25.16 -12.4 9.7 81 -15.1 4.9
23:50 1023 30.21 852 25.16 -12.4 9.6 81 -15.1 4.8
23:55 1023 30.21 852 25.16 -12.3 9.8 80 -15 5
24:00 1023 30.21 852 25.16 -12.2 10.1 81 -14.8 5.3